createdAt,value
2022-07-31T00:02:20.013Z,18.25
2022-07-31T00:04:59.552Z,18.25
2022-07-31T00:07:40.081Z,18.23
2022-07-31T00:10:20.791Z,18.24
2022-07-31T00:12:59.334Z,18.26
2022-07-31T00:15:37.441Z,18.28
2022-07-31T00:18:16.920Z,18.28
2022-07-31T00:21:07.385Z,18.27
2022-07-31T00:23:47.868Z,18.29
2022-07-31T00:26:27.746Z,18.33
2022-07-31T00:29:10.627Z,18.35
2022-07-31T00:31:55.316Z,18.32
2022-07-31T00:34:33.920Z,18.33
2022-07-31T00:37:13.762Z,18.31
2022-07-31T00:39:55.863Z,18.32
2022-07-31T00:42:38.283Z,18.32
2022-07-31T00:45:17.631Z,18.39
2022-07-31T00:48:04.445Z,18.38
2022-07-31T00:50:45.221Z,18.39
2022-07-31T00:53:25.271Z,18.43
2022-07-31T00:56:05.196Z,18.41
2022-07-31T00:58:44.595Z,18.40
2022-07-31T01:01:26.583Z,18.39
2022-07-31T01:04:06.211Z,18.40
2022-07-31T01:06:48.166Z,18.44
2022-07-31T01:09:29.080Z,18.41
2022-07-31T01:12:13.173Z,18.41
2022-07-31T01:14:54.741Z,18.37
2022-07-31T01:17:33.848Z,18.38
2022-07-31T01:20:14.855Z,18.41
2022-07-31T01:24:09.759Z,18.39
2022-07-31T01:27:15.738Z,18.37
2022-07-31T01:29:56.610Z,18.35
2022-07-31T01:32:40.981Z,18.34
2022-07-31T01:35:25.364Z,18.30
2022-07-31T01:38:11.378Z,18.26
2022-07-31T01:40:56.644Z,18.28
2022-07-31T01:43:40.359Z,18.26
2022-07-31T01:46:21.062Z,18.19
2022-07-31T01:49:02.210Z,18.19
2022-07-31T01:51:45.014Z,18.18
2022-07-31T01:54:26.029Z,18.17
2022-07-31T01:57:10.771Z,18.11
2022-07-31T02:00:01.213Z,18.09
2022-07-31T02:02:57.109Z,18.08
2022-07-31T02:05:46.075Z,18.07
2022-07-31T02:08:26.264Z,18.07
2022-07-31T02:11:08.453Z,18.03
2022-07-31T02:13:49.547Z,17.98
2022-07-31T02:16:32.226Z,17.96
2022-07-31T02:19:23.414Z,17.91
2022-07-31T02:22:06.733Z,17.83
2022-07-31T02:24:47.227Z,17.82
2022-07-31T02:27:54.066Z,17.76
2022-07-31T02:30:39.472Z,17.74
2022-07-31T02:33:36.837Z,17.62
2022-07-31T02:36:18.883Z,17.65
2022-07-31T02:38:58.365Z,17.62
2022-07-31T02:41:40.253Z,17.58
2022-07-31T02:44:27.111Z,17.55
2022-07-31T02:47:28.021Z,17.58
2022-07-31T02:50:17.026Z,17.58
2022-07-31T02:53:00.540Z,17.56
2022-07-31T02:55:41.103Z,17.55
2022-07-31T02:58:23.540Z,17.50
2022-07-31T03:01:05.962Z,17.48
2022-07-31T03:03:46.269Z,17.46
2022-07-31T03:06:25.843Z,17.44
2022-07-31T03:09:05.576Z,17.43
2022-07-31T03:11:45.720Z,17.43
2022-07-31T03:14:26.357Z,17.37
2022-07-31T03:17:38.349Z,17.30
2022-07-31T03:20:25.462Z,17.29
2022-07-31T03:23:05.242Z,17.24
2022-07-31T03:25:49.736Z,17.22
2022-07-31T03:28:29.037Z,17.21
2022-07-31T03:31:08.882Z,17.21
2022-07-31T03:33:48.699Z,17.24
2022-07-31T03:36:31.990Z,17.26
2022-07-31T03:39:11.489Z,17.28
2022-07-31T03:42:18.585Z,17.32
2022-07-31T03:44:57.836Z,17.15
2022-07-31T03:47:37.664Z,17.24
2022-07-31T03:50:18.758Z,17.27
2022-07-31T03:52:58.705Z,17.26
2022-07-31T03:55:39.600Z,17.27
2022-07-31T03:58:20.145Z,17.28
2022-07-31T04:01:03.158Z,17.16
2022-07-31T04:03:45.561Z,17.03
2022-07-31T04:06:49.279Z,16.89
2022-07-31T04:09:27.849Z,16.87
2022-07-31T04:12:07.803Z,16.90
2022-07-31T04:14:47.714Z,17.01
2022-07-31T04:17:27.629Z,17.12
2022-07-31T04:20:12.132Z,17.15
2022-07-31T04:22:52.909Z,17.17
2022-07-31T04:25:56.720Z,17.22
2022-07-31T04:29:04.403Z,17.27
2022-07-31T04:31:45.309Z,17.37
2022-07-31T04:34:31.866Z,17.37
2022-07-31T04:37:13.152Z,17.39
2022-07-31T04:39:54.767Z,17.41
2022-07-31T04:42:35.892Z,17.46
2022-07-31T04:45:15.336Z,17.52
2022-07-31T04:47:55.183Z,17.59
2022-07-31T04:50:35.052Z,17.66
2022-07-31T04:53:18.883Z,17.74
2022-07-31T04:56:23.294Z,17.80
2022-07-31T04:59:06.811Z,17.78
2022-07-31T05:02:13.039Z,17.82
2022-07-31T05:04:56.609Z,17.89
2022-07-31T05:07:37.367Z,17.99
2022-07-31T05:11:03.605Z,18.07
2022-07-31T05:13:44.156Z,18.08
2022-07-31T05:16:28.872Z,18.02
2022-07-31T05:19:13.695Z,18.09
2022-07-31T05:22:33.589Z,18.02
2022-07-31T05:25:41.417Z,17.96
2022-07-31T05:28:29.669Z,17.99
2022-07-31T05:31:12.481Z,17.86
2022-07-31T05:33:52.196Z,17.93
2022-07-31T05:36:31.636Z,17.81
2022-07-31T05:39:14.272Z,17.96
2022-07-31T05:42:13.496Z,18.09
2022-07-31T05:45:22.112Z,18.10
2022-07-31T05:48:01.844Z,18.14
2022-07-31T05:50:44.571Z,18.08
2022-07-31T05:53:27.022Z,18.18
2022-07-31T05:56:38.673Z,18.33
2022-07-31T05:59:17.923Z,18.55
2022-07-31T06:02:10.310Z,18.54
2022-07-31T06:05:10.853Z,18.55
2022-07-31T06:07:52.096Z,18.66
2022-07-31T06:10:47.222Z,18.87
2022-07-31T06:13:30.142Z,19.00
2022-07-31T06:16:14.650Z,19.12
2022-07-31T06:18:57.353Z,19.15
2022-07-31T06:21:38.282Z,19.13
2022-07-31T06:24:18.100Z,19.16
2022-07-31T06:26:59.756Z,19.15
2022-07-31T06:29:42.206Z,19.26
2022-07-31T06:32:25.669Z,19.58
2022-07-31T06:35:06.675Z,19.76
2022-07-31T06:37:58.038Z,20.01
2022-07-31T06:40:41.465Z,20.23
2022-07-31T06:43:59.282Z,20.20
2022-07-31T06:46:59.587Z,20.58
2022-07-31T06:50:11.298Z,20.87
2022-07-31T06:52:52.380Z,20.99
2022-07-31T06:55:33.403Z,21.24
2022-07-31T06:58:13.200Z,21.38
2022-07-31T07:00:53.269Z,21.41
2022-07-31T07:03:31.583Z,21.54
2022-07-31T07:06:13.138Z,21.65
2022-07-31T07:08:54.545Z,21.79
2022-07-31T07:11:35.470Z,21.97
2022-07-31T07:14:16.200Z,21.82
2022-07-31T07:16:59.653Z,21.74
2022-07-31T07:19:42.583Z,22.00
2022-07-31T07:22:31.654Z,21.98
2022-07-31T07:25:13.708Z,22.15
2022-07-31T07:27:56.593Z,22.38
2022-07-31T07:30:38.745Z,22.16
2022-07-31T07:33:40.009Z,22.38
2022-07-31T07:36:23.656Z,22.54
2022-07-31T07:39:09.160Z,22.46
2022-07-31T07:41:49.416Z,22.67
2022-07-31T07:44:30.832Z,22.81
2022-07-31T07:47:09.332Z,22.63
2022-07-31T07:49:48.768Z,22.48
2022-07-31T07:53:02.572Z,22.48
2022-07-31T07:56:20.505Z,22.97
2022-07-31T07:58:58.965Z,22.68
2022-07-31T08:02:13.541Z,22.98
2022-07-31T08:04:53.489Z,23.16
2022-07-31T08:07:44.250Z,22.97
2022-07-31T08:10:50.434Z,22.51
2022-07-31T08:13:51.016Z,22.87
2022-07-31T08:16:57.525Z,23.19
2022-07-31T08:19:36.190Z,23.37
2022-07-31T08:22:14.476Z,23.34
2022-07-31T08:24:53.850Z,23.46
2022-07-31T08:27:40.207Z,23.83
2022-07-31T08:30:22.287Z,24.09
2022-07-31T08:33:13.428Z,24.24
2022-07-31T08:35:58.736Z,24.05
2022-07-31T08:38:39.364Z,24.18
2022-07-31T08:41:57.113Z,24.31
2022-07-31T08:44:38.257Z,24.32
2022-07-31T08:47:19.539Z,24.58
2022-07-31T08:50:00.660Z,24.60
2022-07-31T08:52:54.516Z,24.82
2022-07-31T08:55:59.759Z,24.91
2022-07-31T08:58:40.917Z,25.52
2022-07-31T09:01:22.362Z,26.03
2022-07-31T09:04:03.568Z,26.27
2022-07-31T09:07:10.728Z,26.48
2022-07-31T09:09:55.307Z,26.29
2022-07-31T09:12:37.769Z,26.71
2022-07-31T09:15:26.412Z,27.46
2022-07-31T09:18:16.705Z,28.18
2022-07-31T09:21:02.096Z,27.94
2022-07-31T09:23:47.454Z,27.87
2022-07-31T09:26:44.740Z,28.08
2022-07-31T09:29:36.331Z,27.96
2022-07-31T09:32:39.648Z,28.25
2022-07-31T09:35:47.590Z,28.81
2022-07-31T09:38:34.097Z,28.60
2022-07-31T09:41:56.637Z,29.01
2022-07-31T09:44:48.891Z,29.00
2022-07-31T09:47:44.369Z,29.52
2022-07-31T09:50:28.823Z,29.05
2022-07-31T09:53:19.305Z,29.42
2022-07-31T09:56:10.067Z,28.73
2022-07-31T09:58:50.421Z,29.85
2022-07-31T10:01:51.347Z,30.08
2022-07-31T10:04:42.740Z,30.25
2022-07-31T10:07:50.140Z,30.29
2022-07-31T10:10:36.286Z,30.12
2022-07-31T10:14:22.844Z,30.75
2022-07-31T10:17:12.845Z,30.75
2022-07-31T10:20:21.881Z,30.37
2022-07-31T10:23:53.261Z,30.31
2022-07-31T10:26:59.765Z,29.37
2022-07-31T10:30:55.560Z,29.30
2022-07-31T10:33:56.979Z,29.35
2022-07-31T10:37:13.007Z,29.36
2022-07-31T10:40:25.469Z,29.28
2022-07-31T10:43:27.493Z,29.34
2022-07-31T10:46:34.228Z,29.24
2022-07-31T10:49:42.684Z,29.34
2022-07-31T10:52:41.091Z,29.77
2022-07-31T10:56:25.076Z,30.01
2022-07-31T10:59:30.872Z,29.40
2022-07-31T11:02:40.618Z,29.25
2022-07-31T11:06:01.051Z,28.80
2022-07-31T11:09:03.193Z,29.40
2022-07-31T11:12:19.347Z,29.72
2022-07-31T11:15:20.560Z,29.74
2022-07-31T11:18:26.716Z,29.97
2022-07-31T11:21:37.657Z,29.91
2022-07-31T11:24:22.103Z,30.01
2022-07-31T11:27:01.748Z,30.29
2022-07-31T11:29:58.898Z,29.66
2022-07-31T11:32:40.954Z,30.23
2022-07-31T11:35:32.297Z,30.21
2022-07-31T11:38:30.665Z,30.37
2022-07-31T11:41:14.219Z,29.74
2022-07-31T11:43:57.294Z,29.67
2022-07-31T11:46:37.905Z,29.95
2022-07-31T11:49:48.052Z,29.97
2022-07-31T11:52:31.244Z,29.69
2022-07-31T11:55:17.963Z,29.78
2022-07-31T11:57:59.776Z,29.72
2022-07-31T12:00:39.129Z,29.54
2022-07-31T12:03:20.394Z,29.70
2022-07-31T12:06:41.650Z,29.32
2022-07-31T12:10:01.899Z,29.29
2022-07-31T12:12:24.677Z,29.27
2022-07-31T12:15:19.423Z,28.89
2022-07-31T12:18:03.055Z,28.95
2022-07-31T12:20:53.280Z,28.64
2022-07-31T12:23:47.390Z,28.58
2022-07-31T12:26:30.477Z,28.46
2022-07-31T12:29:12.707Z,28.59
2022-07-31T12:31:55.453Z,28.54
2022-07-31T12:34:38.435Z,28.50
2022-07-31T12:37:21.760Z,28.50
2022-07-31T12:40:01.746Z,28.59
2022-07-31T12:42:45.859Z,28.45
2022-07-31T12:45:36.463Z,28.52
2022-07-31T12:48:19.204Z,28.70
2022-07-31T12:50:59.346Z,28.85
2022-07-31T12:53:37.793Z,28.87
2022-07-31T12:56:17.253Z,28.93
2022-07-31T12:59:02.103Z,28.80
2022-07-31T13:01:41.783Z,28.80
2022-07-31T13:04:24.463Z,28.70
2022-07-31T13:07:03.591Z,28.83
2022-07-31T13:09:44.322Z,28.87
2022-07-31T13:12:59.376Z,28.92
2022-07-31T13:15:40.478Z,28.85
2022-07-31T13:18:35.706Z,28.99
2022-07-31T13:21:15.863Z,29.05
2022-07-31T13:23:57.959Z,29.01
2022-07-31T13:26:38.899Z,29.13
2022-07-31T13:29:18.695Z,29.12
2022-07-31T13:32:00.334Z,29.08
2022-07-31T13:34:41.825Z,29.23
2022-07-31T13:37:23.112Z,28.83
2022-07-31T13:40:03.365Z,28.86
2022-07-31T13:42:47.034Z,28.83
2022-07-31T13:45:29.022Z,28.62
2022-07-31T13:48:10.578Z,28.37
2022-07-31T13:50:51.375Z,28.55
2022-07-31T13:53:33.820Z,28.45
2022-07-31T13:56:14.479Z,28.71
2022-07-31T13:59:14.852Z,28.82
2022-07-31T14:02:03.703Z,28.83
2022-07-31T14:04:48.575Z,28.94
2022-07-31T14:07:48.202Z,28.81
2022-07-31T14:10:29.610Z,28.92
2022-07-31T14:13:07.789Z,28.97
2022-07-31T14:15:46.290Z,28.87
2022-07-31T14:18:25.595Z,28.93
2022-07-31T14:21:08.320Z,28.98
2022-07-31T14:23:49.220Z,28.98
2022-07-31T14:26:29.694Z,28.94
2022-07-31T14:29:09.571Z,28.84
2022-07-31T14:31:52.375Z,28.80
2022-07-31T14:34:35.651Z,28.78
2022-07-31T14:37:15.388Z,28.78
2022-07-31T14:39:55.219Z,28.71
2022-07-31T14:42:35.766Z,28.77
2022-07-31T14:45:15.356Z,28.69
2022-07-31T14:47:56.180Z,28.64
2022-07-31T14:50:39.133Z,28.64
2022-07-31T14:53:34.412Z,28.57
2022-07-31T14:56:27.338Z,28.42
2022-07-31T14:59:16.079Z,28.25
2022-07-31T15:01:55.895Z,28.02
2022-07-31T15:04:35.690Z,28.13
2022-07-31T15:07:34.201Z,28.07
2022-07-31T15:10:16.846Z,27.96
2022-07-31T15:12:57.403Z,27.83
2022-07-31T15:15:37.256Z,27.57
2022-07-31T15:18:15.860Z,27.56
2022-07-31T15:20:57.263Z,27.57
2022-07-31T15:23:38.680Z,27.54
2022-07-31T15:26:20.261Z,27.30
2022-07-31T15:28:59.597Z,27.28
2022-07-31T15:31:39.241Z,27.14
2022-07-31T15:34:19.163Z,26.95
2022-07-31T15:37:00.696Z,26.86
2022-07-31T15:39:42.279Z,26.50
2022-07-31T15:42:42.745Z,26.15
2022-07-31T15:45:22.353Z,25.97
2022-07-31T15:48:09.617Z,25.85
2022-07-31T15:50:49.710Z,25.73
2022-07-31T15:53:39.074Z,25.41
2022-07-31T15:56:19.617Z,24.96
2022-07-31T15:59:00.079Z,24.56
2022-07-31T16:01:52.792Z,24.26
2022-07-31T16:04:34.710Z,23.98
2022-07-31T16:08:31.108Z,23.74
2022-07-31T16:10:31.917Z,23.37
2022-07-31T16:13:11.943Z,23.36
2022-07-31T16:15:51.822Z,23.09
2022-07-31T16:18:31.970Z,22.97
2022-07-31T16:21:11.378Z,22.81
2022-07-31T16:23:51.143Z,22.66
2022-07-31T16:26:31.008Z,22.61
2022-07-31T16:29:17.262Z,22.49
2022-07-31T16:32:11.502Z,22.34
2022-07-31T16:34:54.080Z,22.12
2022-07-31T16:37:52.459Z,22.02
2022-07-31T16:40:34.831Z,22.03
2022-07-31T16:43:50.737Z,21.99
2022-07-31T16:46:17.851Z,21.88
2022-07-31T16:48:57.342Z,21.90
2022-07-31T16:51:40.164Z,21.94
2022-07-31T16:54:19.125Z,21.96
2022-07-31T16:56:58.623Z,21.96
2022-07-31T16:59:57.076Z,21.67
2022-07-31T17:02:38.814Z,21.82
2022-07-31T17:05:18.493Z,21.75
2022-07-31T17:07:58.351Z,21.65
2022-07-31T17:10:38.122Z,21.05
2022-07-31T17:13:18.068Z,21.24
2022-07-31T17:15:57.772Z,21.17
2022-07-31T17:18:39.801Z,20.91
2022-07-31T17:21:19.688Z,20.98
2022-07-31T17:24:03.561Z,21.08
2022-07-31T17:26:46.505Z,21.09
2022-07-31T17:29:28.377Z,21.11
2022-07-31T17:32:11.339Z,21.16
2022-07-31T17:34:52.802Z,20.85
2022-07-31T17:37:34.226Z,21.00
2022-07-31T17:40:40.736Z,20.80
2022-07-31T17:43:17.864Z,21.07
2022-07-31T17:46:17.393Z,21.11
2022-07-31T17:49:02.717Z,21.13
2022-07-31T17:51:59.456Z,21.06
2022-07-31T17:54:40.676Z,20.85
2022-07-31T17:57:22.745Z,20.73
2022-07-31T18:00:06.609Z,20.35
2022-07-31T18:02:47.589Z,20.43
2022-07-31T18:05:27.083Z,20.14
2022-07-31T18:08:08.977Z,20.08
2022-07-31T18:10:54.386Z,19.91
2022-07-31T18:13:39.264Z,19.78
2022-07-31T18:16:30.972Z,19.74
2022-07-31T18:19:10.287Z,19.55
2022-07-31T18:21:50.108Z,19.76
2022-07-31T18:24:42.198Z,19.72
2022-07-31T18:27:22.973Z,19.78
2022-07-31T18:30:06.413Z,19.67
2022-07-31T18:32:45.767Z,19.73
2022-07-31T18:35:25.705Z,19.71
2022-07-31T18:38:07.475Z,19.70
2022-07-31T18:40:46.884Z,19.67
2022-07-31T18:43:28.576Z,19.55
2022-07-31T18:46:07.998Z,19.54
2022-07-31T18:48:53.113Z,19.47
2022-07-31T18:51:34.735Z,19.61
2022-07-31T18:54:16.716Z,19.45
2022-07-31T18:56:58.906Z,19.48
2022-07-31T18:59:38.374Z,19.49
2022-07-31T19:02:18.129Z,19.38
2022-07-31T19:05:07.429Z,19.36
2022-07-31T19:07:55.674Z,19.19
2022-07-31T19:10:49.217Z,19.19
2022-07-31T19:13:30.027Z,19.20
2022-07-31T19:16:09.615Z,19.38
2022-07-31T19:18:51.328Z,19.49
2022-07-31T19:21:42.189Z,19.59
2022-07-31T19:24:23.738Z,19.46
2022-07-31T19:27:03.388Z,19.56
2022-07-31T19:29:45.839Z,19.65
2022-07-31T19:32:30.679Z,19.71
2022-07-31T19:35:12.676Z,19.70
2022-07-31T19:37:58.730Z,19.76
2022-07-31T19:40:38.338Z,19.77
2022-07-31T19:43:20.166Z,19.76
2022-07-31T19:46:11.953Z,19.67
2022-07-31T19:48:52.207Z,19.60
2022-07-31T19:51:34.089Z,19.67
2022-07-31T19:54:13.366Z,19.70
2022-07-31T19:56:53.186Z,19.73
2022-07-31T19:59:33.037Z,19.72
2022-07-31T20:02:16.971Z,19.74
2022-07-31T20:05:09.251Z,19.71
2022-07-31T20:07:48.821Z,19.52
2022-07-31T20:10:29.421Z,19.55
2022-07-31T20:13:08.611Z,19.61
2022-07-31T20:16:02.717Z,19.44
2022-07-31T20:18:42.883Z,19.49
2022-07-31T20:21:22.671Z,19.58
2022-07-31T20:24:04.944Z,19.65
2022-07-31T20:26:45.578Z,19.68
2022-07-31T20:29:27.585Z,19.67
2022-07-31T20:32:08.548Z,19.64
2022-07-31T20:34:48.462Z,19.60
2022-07-31T20:37:27.823Z,19.66
2022-07-31T20:40:08.453Z,19.64
2022-07-31T20:42:49.068Z,19.65
2022-07-31T20:45:28.843Z,19.64
2022-07-31T20:48:08.921Z,19.67
2022-07-31T20:50:48.721Z,19.61
2022-07-31T20:53:28.469Z,19.67
2022-07-31T20:56:08.111Z,19.68
2022-07-31T20:58:51.776Z,19.67
2022-07-31T21:01:32.600Z,19.72
2022-07-31T21:04:12.380Z,19.64
2022-07-31T21:06:52.280Z,19.76
2022-07-31T21:09:33.015Z,19.78
2022-07-31T21:12:15.831Z,19.83
2022-07-31T21:15:00.252Z,19.82
2022-07-31T21:17:41.129Z,19.89
2022-07-31T21:20:20.898Z,19.85
2022-07-31T21:23:15.769Z,19.83
2022-07-31T21:25:57.140Z,19.86
2022-07-31T21:28:51.287Z,19.85
2022-07-31T21:31:30.696Z,19.89
2022-07-31T21:34:11.393Z,19.96
2022-07-31T21:36:53.440Z,19.94
2022-07-31T21:39:36.736Z,19.94
2022-07-31T21:42:16.505Z,20.02
2022-07-31T21:44:57.134Z,20.06
2022-07-31T21:47:52.495Z,20.03
2022-07-31T21:50:33.832Z,20.04
2022-07-31T21:53:14.120Z,20.03
2022-07-31T21:55:54.895Z,20.15
2022-07-31T21:58:34.707Z,20.15
2022-07-31T22:01:15.208Z,20.14
2022-07-31T22:03:55.864Z,20.12
2022-07-31T22:06:53.996Z,20.11
2022-07-31T22:09:34.701Z,20.11
2022-07-31T22:12:13.245Z,20.10
2022-07-31T22:14:53.371Z,20.13
2022-07-31T22:17:32.577Z,20.07
2022-07-31T22:20:12.320Z,20.08
2022-07-31T22:22:52.836Z,20.09
2022-07-31T22:25:34.323Z,20.02
2022-07-31T22:28:17.980Z,20.02
2022-07-31T22:30:58.624Z,20.02
2022-07-31T22:33:38.004Z,20.01
2022-07-31T22:36:19.178Z,20.01
2022-07-31T22:39:01.187Z,19.98
2022-07-31T22:41:40.535Z,20.02
2022-07-31T22:44:23.102Z,20.01
2022-07-31T22:47:03.428Z,20.00
2022-07-31T22:49:45.130Z,19.96
2022-07-31T22:52:24.410Z,19.99
2022-07-31T22:55:14.652Z,19.99
2022-07-31T22:57:55.287Z,19.97
2022-07-31T23:00:35.218Z,19.98
2022-07-31T23:03:14.811Z,19.97
2022-07-31T23:06:28.294Z,20.00
2022-07-31T23:08:55.404Z,19.99
2022-07-31T23:11:35.069Z,20.00
2022-07-31T23:14:17.109Z,19.95
2022-07-31T23:16:56.332Z,19.96
2022-07-31T23:19:36.088Z,19.95
2022-07-31T23:22:16.317Z,19.91
2022-07-31T23:24:58.147Z,19.86
2022-07-31T23:27:38.719Z,19.91
2022-07-31T23:30:20.622Z,19.95
2022-07-31T23:33:00.137Z,19.95
2022-07-31T23:35:39.738Z,19.98
2022-07-31T23:38:19.596Z,19.96
2022-07-31T23:41:14.181Z,19.98
2022-07-31T23:43:55.191Z,19.98
2022-07-31T23:46:37.537Z,20.02
2022-07-31T23:49:18.998Z,20.06
2022-07-31T23:52:00.696Z,20.05
2022-07-31T23:54:42.428Z,20.06
2022-07-31T23:57:25.844Z,20.06
